Time;durP1;ratioP1;P1;durP2;ratioP2;P2;SDS_P1;SDS_P2;PMS_P1;PMS_P2;Temp;Humidity;BMP_temperature;BMP_pressure;BME280_temperature;BME280_humidity;BME280_pressure;Samples;Min_cycle;Max_cycle;Signal;HPM_P1;HPM_P2
2021/10/18 00:01:52;;;;;;;;;22.75;20.50;;;;;12.72;62.07;101770.16;4931090;28;58360;-74
2021/10/18 00:04:18;;;;;;;;;25.50;23.25;;;;;12.70;62.28;101773.66;4954820;28;55750;-74
2021/10/18 00:06:43;;;;;;;;;29.75;24.00;;;;;12.69;62.24;101783.34;4955224;28;51380;-75
2021/10/18 00:09:08;;;;;;;;;27.50;23.25;;;;;12.66;62.40;101772.69;4955261;28;60923;-74
2021/10/18 00:11:34;;;;;;;;;28.25;22.75;;;;;12.62;62.16;101772.59;4955384;28;45233;-75
2021/10/18 00:13:59;;;;;;;;;27.50;26.00;;;;;12.61;62.49;101777.03;4955665;28;49220;-74
2021/10/18 00:16:25;;;;;;;;;27.75;27.50;;;;;12.59;62.46;101784.94;4955903;28;45518;-75
2021/10/18 00:18:50;;;;;;;;;34.75;30.50;;;;;12.56;62.57;101779.59;4972806;28;53152;-74
2021/10/18 00:21:15;;;;;;;;;33.50;30.25;;;;;12.53;62.70;101771.59;4953902;28;45267;-75
2021/10/18 00:23:41;;;;;;;;;32.50;29.25;;;;;12.51;62.58;101775.94;4955523;28;50017;-75
2021/10/18 00:26:06;;;;;;;;;36.75;33.75;;;;;12.44;62.53;101765.22;4954014;28;52156;-75
2021/10/18 00:28:32;;;;;;;;;43.50;37.25;;;;;12.48;62.73;101781.22;4948534;28;54564;-74
2021/10/18 00:30:57;;;;;;;;;40.25;35.50;;;;;12.45;62.84;101777.59;4939601;28;45223;-75
2021/10/18 00:33:22;;;;;;;;;38.75;34.25;;;;;12.38;62.76;101763.38;4944626;28;52810;-75
2021/10/18 00:35:48;;;;;;;;;40.00;35.25;;;;;12.44;62.69;101775.81;4951080;28;45387;-75
2021/10/18 00:38:13;;;;;;;;;41.25;34.25;;;;;12.41;62.83;101771.38;4938168;28;47199;-74
2021/10/18 00:40:39;;;;;;;;;39.50;35.00;;;;;12.40;62.89;101763.38;4940007;28;58881;-75
2021/10/18 00:43:04;;;;;;;;;40.25;34.25;;;;;12.36;63.03;101783.66;4952668;28;45484;-75
2021/10/18 00:45:30;;;;;;;;;35.00;31.50;;;;;12.35;62.98;101765.94;4955670;28;45423;-75
2021/10/18 00:47:57;;;;;;;;;35.50;33.50;;;;;12.34;63.06;101790.66;4953628;28;47238;-75
2021/10/18 00:50:23;;;;;;;;;47.00;35.25;;;;;12.30;63.01;101795.03;4999276;28;45455;-74
2021/10/18 00:52:48;;;;;;;;;38.50;35.00;;;;;12.28;63.20;101790.53;4955428;28;45316;-74
2021/10/18 00:55:14;;;;;;;;;36.25;33.00;;;;;12.23;63.25;101781.59;4948510;28;50325;-74
2021/10/18 00:57:39;;;;;;;;;33.75;32.00;;;;;12.23;63.29;101787.78;4936820;28;58602;-75
2021/10/18 01:00:05;;;;;;;;;36.75;30.75;;;;;12.18;63.14;101791.22;4919544;28;52742;-75
2021/10/18 01:02:31;;;;;;;;;31.00;30.00;;;;;12.20;63.27;101803.66;4955065;28;45595;-75
2021/10/18 01:04:56;;;;;;;;;37.75;32.50;;;;;12.17;63.26;101797.38;4955190;28;48598;-75
2021/10/18 01:07:22;;;;;;;;;33.75;31.50;;;;;12.15;63.44;101800.00;4954762;28;58874;-75
2021/10/18 01:09:47;;;;;;;;;38.25;33.25;;;;;12.10;63.23;101784.91;4955118;28;45278;-75
2021/10/18 01:12:12;;;;;;;;;36.00;31.50;;;;;12.12;63.46;101796.41;4937221;28;49973;-75
2021/10/18 01:14:38;;;;;;;;;40.25;34.50;;;;;12.09;63.48;101791.94;4954635;28;53846;-74
2021/10/18 01:17:03;;;;;;;;;32.50;28.75;;;;;12.03;63.54;101789.16;4933719;28;59118;-75
2021/10/18 01:19:29;;;;;;;;;31.00;29.00;;;;;12.05;63.64;101787.44;4956520;28;45309;-75
2021/10/18 01:22:00;;;;;;;;;34.25;27.50;;;;;12.03;63.65;101787.38;4951161;28;50565;-74
2021/10/18 01:24:25;;;;;;;;;36.50;28.25;;;;;12.02;63.72;101797.97;4957928;28;45666;-75
2021/10/18 01:26:50;;;;;;;;;38.25;33.25;;;;;12.01;63.65;101786.47;4938431;28;58770;-75
2021/10/18 01:29:16;;;;;;;;;37.00;32.75;;;;;11.99;63.84;101789.97;4957074;28;46415;-74
2021/10/18 01:31:41;;;;;;;;;36.50;31.25;;;;;12.00;63.68;101789.09;4957249;28;51211;-74
2021/10/18 01:34:07;;;;;;;;;40.50;34.00;;;;;11.98;63.69;101794.34;4949881;28;55944;-75
2021/10/18 01:36:33;;;;;;;;;38.00;32.50;;;;;11.92;63.88;101788.94;4953695;28;46244;-75
2021/10/18 01:38:58;;;;;;;;;33.00;30.50;;;;;11.97;63.78;101787.28;4936848;28;45218;-74
2021/10/18 01:41:24;;;;;;;;;38.25;32.00;;;;;11.96;63.87;101792.53;4952052;28;56953;-75
2021/10/18 01:43:49;;;;;;;;;39.75;35.00;;;;;11.94;63.76;101784.56;4957451;28;50412;-74
2021/10/18 01:46:14;;;;;;;;;40.75;32.00;;;;;11.92;63.97;101780.09;4957041;28;57771;-75
2021/10/18 01:48:40;;;;;;;;;35.00;30.50;;;;;11.90;63.97;101772.13;4980973;28;45340;-74
2021/10/18 01:51:07;;;;;;;;;37.00;30.75;;;;;11.88;64.15;101768.59;4969732;28;46354;-75
2021/10/18 01:53:33;;;;;;;;;32.50;31.75;;;;;11.87;64.07;101769.41;4957548;28;45242;-74
2021/10/18 01:55:58;;;;;;;;;41.25;32.75;;;;;11.78;64.10;101748.94;4956947;28;57263;-74
2021/10/18 01:58:23;;;;;;;;;37.50;34.00;;;;;11.86;64.21;101767.63;4939391;28;45305;-75
2021/10/18 02:00:49;;;;;;;;;35.25;31.75;;;;;11.84;64.28;101764.06;4956894;28;51654;-74
2021/10/18 02:03:14;;;;;;;;;46.25;31.75;;;;;11.84;64.29;101765.84;4957069;28;55468;-74
2021/10/18 02:05:40;;;;;;;;;31.50;29.25;;;;;11.83;64.23;101767.59;4957165;28;47230;-75
2021/10/18 02:08:05;;;;;;;;;37.00;33.75;;;;;11.81;64.23;101766.59;4956778;28;59426;-74
2021/10/18 02:10:30;;;;;;;;;41.00;35.00;;;;;11.79;64.21;101761.28;4956987;28;45271;-75
2021/10/18 02:12:56;;;;;;;;;39.50;34.50;;;;;11.74;64.24;101746.19;4957040;28;52634;-75
2021/10/18 02:15:21;;;;;;;;;40.50;34.75;;;;;11.73;64.24;101755.00;4956979;28;47450;-75
2021/10/18 02:17:47;;;;;;;;;32.00;29.00;;;;;11.70;64.34;101744.34;4954914;28;56368;-75
2021/10/18 02:20:12;;;;;;;;;43.25;34.50;;;;;11.77;64.36;101764.75;4956586;28;49414;-75
2021/10/18 02:22:38;;;;;;;;;31.75;28.75;;;;;11.76;64.39;101755.94;4951361;28;45533;-75
2021/10/18 02:25:04;;;;;;;;;37.50;29.50;;;;;11.74;64.45;101752.38;4953120;28;46413;-75
2021/10/18 02:27:30;;;;;;;;;35.75;29.00;;;;;11.75;64.62;101755.91;4955560;28;45276;-74
2021/10/18 02:29:55;;;;;;;;;36.00;31.75;;;;;11.75;64.62;101748.84;4956947;28;45578;-75
2021/10/18 02:32:21;;;;;;;;;38.50;33.50;;;;;11.77;64.60;101746.22;4957395;28;45423;-75
2021/10/18 02:34:46;;;;;;;;;29.75;28.50;;;;;11.76;64.67;101752.38;4946885;28;58723;-75
2021/10/18 02:37:11;;;;;;;;;43.00;30.50;;;;;11.77;64.63;101754.16;4955635;28;45459;-74
2021/10/18 02:39:37;;;;;;;;;35.50;30.00;;;;;11.73;64.46;101750.59;4949358;28;55243;-74
2021/10/18 02:42:02;;;;;;;;;41.50;35.00;;;;;11.76;64.64;101747.09;4954083;28;50987;-75
2021/10/18 02:44:28;;;;;;;;;45.00;35.50;;;;;11.75;64.53;101745.31;4956823;28;47345;-75
2021/10/18 02:46:53;;;;;;;;;39.00;33.25;;;;;11.75;64.61;101748.84;4952539;28;45421;-74
2021/10/18 02:49:21;;;;;;;;;35.75;31.00;;;;;11.74;64.68;101748.84;4995902;28;53940;-74
2021/10/18 02:51:47;;;;;;;;;29.75;28.00;;;;;11.70;64.63;101732.00;4957221;28;45566;-74
2021/10/18 02:54:12;;;;;;;;;34.75;30.50;;;;;11.67;64.72;101726.66;4956727;28;46692;-75
2021/10/18 02:56:37;;;;;;;;;35.75;31.00;;;;;11.71;64.50;101739.06;4952727;28;45475;-74
2021/10/18 02:59:03;;;;;;;;;31.50;28.25;;;;;11.70;64.50;101729.34;4954871;28;47523;-75
2021/10/18 03:01:28;;;;;;;;;38.50;35.00;;;;;11.69;64.81;101724.91;4956863;28;45552;-74
2021/10/18 03:03:54;;;;;;;;;34.00;30.25;;;;;11.68;64.64;101725.78;4956387;28;47375;-75
2021/10/18 03:06:19;;;;;;;;;35.50;30.25;;;;;11.67;64.72;101726.66;4956452;28;48157;-74
2021/10/18 03:08:44;;;;;;;;;35.00;31.00;;;;;11.65;64.71;101722.19;4955884;28;57982;-75
2021/10/18 03:11:10;;;;;;;;;36.50;30.75;;;;;11.66;64.85;101729.25;4956170;28;51618;-74
2021/10/18 03:13:35;;;;;;;;;36.25;29.25;;;;;11.65;64.76;101719.53;4935135;28;56746;-74
2021/10/18 03:16:00;;;;;;;;;36.50;33.00;;;;;11.64;64.93;101717.75;4955861;28;57158;-75
2021/10/18 03:18:26;;;;;;;;;34.00;29.00;;;;;11.63;64.94;101727.44;4954336;28;54327;-75
2021/10/18 03:20:51;;;;;;;;;38.25;31.00;;;;;11.63;65.02;101729.19;4950981;28;53327;-75
2021/10/18 03:23:17;;;;;;;;;40.25;33.75;;;;;11.63;65.00;101729.19;4955504;28;46212;-74
2021/10/18 03:25:42;;;;;;;;;44.00;32.00;;;;;11.61;64.99;101729.19;4953628;28;45539;-75
2021/10/18 03:28:08;;;;;;;;;40.00;30.50;;;;;11.61;64.88;101731.81;4953823;28;54680;-75
2021/10/18 03:30:33;;;;;;;;;37.50;32.75;;;;;11.57;65.03;101723.78;4956382;28;45519;-74
2021/10/18 03:32:58;;;;;;;;;36.75;31.00;;;;;11.59;65.00;101733.53;4955684;28;46617;-74
2021/10/18 03:35:24;;;;;;;;;32.25;26.50;;;;;11.55;65.02;101721.97;4945839;28;45329;-75
2021/10/18 03:37:50;;;;;;;;;31.50;29.75;;;;;11.58;64.94;101730.84;4956143;28;45518;-74
2021/10/18 03:40:15;;;;;;;;;36.25;31.00;;;;;11.58;65.05;101729.09;4949545;28;45453;-75
2021/10/18 03:42:41;;;;;;;;;38.00;33.50;;;;;11.54;65.32;101728.13;4954830;28;56640;-75
2021/10/18 03:45:07;;;;;;;;;36.50;31.00;;;;;11.49;65.25;101719.19;4955722;28;45455;-74
2021/10/18 03:47:33;;;;;;;;;27.75;25.50;;;;;11.52;65.20;101732.50;4956264;28;45317;-74
2021/10/18 03:49:58;;;;;;;;;31.75;25.25;;;;;11.52;65.36;101740.44;4998042;28;45503;-75
2021/10/18 03:52:23;;;;;;;;;29.25;25.75;;;;;11.50;65.58;101739.53;4955248;28;61719;-75
2021/10/18 03:54:49;;;;;;;;;31.00;27.25;;;;;11.50;65.60;101743.91;4953446;28;53966;-74
2021/10/18 03:57:15;;;;;;;;;31.75;26.00;;;;;11.49;65.51;101747.41;4954840;28;46421;-74
2021/10/18 03:59:40;;;;;;;;;38.00;31.75;;;;;11.49;65.66;101745.66;4956012;28;45426;-74
2021/10/18 04:02:06;;;;;;;;;39.50;35.25;;;;;11.49;65.67;101748.28;4955506;28;61262;-75
2021/10/18 04:04:32;;;;;;;;;40.00;30.75;;;;;11.51;65.67;101753.63;4955907;28;45415;-75
2021/10/18 04:06:57;;;;;;;;;30.50;27.00;;;;;11.50;65.49;101747.47;4955976;28;45221;-74
2021/10/18 04:09:23;;;;;;;;;38.25;27.25;;;;;11.49;65.62;101748.28;4955759;28;45549;-74
2021/10/18 04:11:48;;;;;;;;;36.50;31.00;;;;;11.50;65.60;101755.41;4938561;28;46480;-74
2021/10/18 04:14:13;;;;;;;;;32.50;29.00;;;;;11.51;65.75;101751.88;4954265;28;45500;-74
2021/10/18 04:16:39;;;;;;;;;36.50;29.25;;;;;11.49;65.69;101750.06;4955527;28;45949;-74
2021/10/18 04:19:04;;;;;;;;;31.00;27.50;;;;;11.51;65.56;101756.28;4953751;28;54146;-75
2021/10/18 04:21:29;;;;;;;;;36.00;28.50;;;;;11.47;65.70;101751.78;4949298;28;59188;-75
2021/10/18 04:23:55;;;;;;;;;33.75;26.75;;;;;11.48;65.55;101751.81;4955586;28;51386;-75
2021/10/18 04:26:20;;;;;;;;;43.50;33.25;;;;;11.51;65.53;101756.28;4952555;28;47883;-74
2021/10/18 04:28:46;;;;;;;;;36.25;28.75;;;;;11.52;65.50;101766.88;4937375;28;45468;-75
2021/10/18 04:31:11;;;;;;;;;35.25;27.25;;;;;11.50;65.50;101760.69;4954850;28;61541;-75
2021/10/18 04:33:37;;;;;;;;;27.50;25.75;;;;;11.44;65.55;101759.63;4950530;28;45455;-74
2021/10/18 04:36:02;;;;;;;;;38.00;26.75;;;;;11.47;65.57;101755.31;4949321;28;54617;-75
2021/10/18 04:38:28;;;;;;;;;33.25;25.25;;;;;11.48;65.27;101767.69;4955504;28;45132;-75
2021/10/18 04:40:54;;;;;;;;;35.25;30.00;;;;;11.48;65.50;101770.31;4953572;28;48080;-75
2021/10/18 04:43:19;;;;;;;;;32.25;26.50;;;;;11.47;65.48;101772.94;4954968;28;55244;-75
2021/10/18 04:45:44;;;;;;;;;34.00;29.50;;;;;11.44;65.51;101773.75;4955044;28;52690;-75
2021/10/18 04:48:10;;;;;;;;;29.25;29.00;;;;;11.43;65.68;101776.38;4957173;28;52415;-74
2021/10/18 04:50:35;;;;;;;;;39.25;28.50;;;;;11.42;65.75;101777.22;4995865;28;53628;-75
2021/10/18 04:53:01;;;;;;;;;36.25;31.00;;;;;11.36;65.81;101772.69;4953515;28;45430;-74
2021/10/18 04:55:26;;;;;;;;;38.50;30.25;;;;;11.38;65.85;101784.19;4938479;28;45769;-74
2021/10/18 04:57:53;;;;;;;;;36.50;30.50;;;;;11.33;65.56;101777.00;4955465;28;45531;-75
2021/10/18 05:00:19;;;;;;;;;31.25;29.25;;;;;11.30;65.71;101780.50;4937996;28;46517;-75
2021/10/18 05:02:44;;;;;;;;;35.25;28.25;;;;;11.31;65.58;101784.91;4955167;28;45302;-74
2021/10/18 05:05:10;;;;;;;;;28.25;27.50;;;;;11.31;65.76;101787.56;4937545;28;52732;-75
2021/10/18 05:07:35;;;;;;;;;32.75;31.00;;;;;11.34;65.69;101805.22;4950017;28;45733;-74
2021/10/18 05:10:00;;;;;;;;;36.50;32.50;;;;;11.33;65.64;101803.44;4952198;28;50011;-74
2021/10/18 05:12:26;;;;;;;;;33.75;28.50;;;;;11.32;65.77;101797.28;4953098;28;59174;-75
2021/10/18 05:14:51;;;;;;;;;28.25;28.00;;;;;11.30;65.70;101799.00;4944568;28;45412;-74
2021/10/18 05:17:17;;;;;;;;;31.75;28.00;;;;;11.31;65.97;101798.13;4999823;28;53132;-75
2021/10/18 05:19:42;;;;;;;;;35.50;30.75;;;;;11.27;65.95;101802.44;4973529;28;51003;-75
2021/10/18 05:22:07;;;;;;;;;31.00;28.00;;;;;11.26;65.77;101805.94;4957391;28;57190;-74
2021/10/18 05:24:33;;;;;;;;;36.00;27.50;;;;;11.25;66.09;101800.63;4981639;28;50084;-75
2021/10/18 05:26:58;;;;;;;;;31.75;26.75;;;;;11.26;66.04;101802.41;4945629;28;53603;-75
2021/10/18 05:29:25;;;;;;;;;35.25;28.25;;;;;11.25;65.95;101808.56;4951534;28;58655;-75
2021/10/18 05:31:51;;;;;;;;;32.50;28.00;;;;;11.25;66.13;101800.63;4954785;28;45512;-74
2021/10/18 05:34:16;;;;;;;;;34.25;29.00;;;;;11.22;66.26;101796.16;4946833;28;45786;-76
2021/10/18 05:36:41;;;;;;;;;37.25;29.50;;;;;11.26;66.31;101800.66;4953588;28;48129;-81
2021/10/18 05:39:07;;;;;;;;;32.25;28.50;;;;;11.27;66.30;101791.88;4951393;28;57679;-77
2021/10/18 05:41:32;;;;;;;;;42.00;33.75;;;;;11.27;66.44;101793.63;4953357;28;54059;-77
2021/10/18 05:43:59;;;;;;;;;39.50;32.00;;;;;11.24;66.29;101788.28;4955132;28;45673;-76
2021/10/18 05:46:24;;;;;;;;;31.50;29.75;;;;;11.27;66.35;101794.50;4937089;28;45337;-77
2021/10/18 05:48:50;;;;;;;;;35.25;30.25;;;;;11.28;66.18;101795.41;4949196;28;46680;-76
2021/10/18 05:51:15;;;;;;;;;33.25;29.00;;;;;11.27;66.38;101791.88;4953627;28;45248;-76
2021/10/18 05:53:41;;;;;;;;;38.25;28.25;;;;;11.28;66.44;101792.75;4936446;28;45277;-75
2021/10/18 05:56:06;;;;;;;;;28.50;25.75;;;;;11.29;66.50;101797.19;4937463;28;45348;-76
2021/10/18 05:58:32;;;;;;;;;38.25;27.00;;;;;11.32;66.62;101804.31;4953658;28;46423;-75
2021/10/18 06:00:57;;;;;;;;;28.50;21.75;;;;;11.30;66.77;101809.56;4947097;28;45364;-74
2021/10/18 06:03:23;;;;;;;;;32.75;23.75;;;;;11.31;66.85;101803.44;4945216;28;54055;-75
2021/10/18 06:05:48;;;;;;;;;30.25;24.00;;;;;11.32;66.94;101817.53;4956476;28;45624;-75
2021/10/18 06:08:14;;;;;;;;;26.50;23.50;;;;;11.30;66.77;101814.88;4953301;28;45894;-76
2021/10/18 06:10:40;;;;;;;;;28.50;26.75;;;;;11.33;67.04;101814.91;4943056;28;45311;-76
2021/10/18 06:13:06;;;;;;;;;33.50;28.25;;;;;11.32;66.86;101815.78;4954030;28;45572;-76
2021/10/18 06:15:32;;;;;;;;;33.25;28.75;;;;;11.35;66.70;101822.91;4953331;28;45518;-76
2021/10/18 06:18:09;;;;;;;;;32.00;26.00;;;;;11.36;66.68;101825.59;4938780;28;46168;-76
2021/10/18 06:20:35;;;;;;;;;26.75;21.50;;;;;11.35;66.84;101823.81;4948389;28;45429;-76
2021/10/18 06:23:00;;;;;;;;;31.00;24.25;;;;;11.35;66.73;101814.97;4936716;28;45599;-76
2021/10/18 06:25:25;;;;;;;;;31.25;27.75;;;;;11.37;66.77;101822.06;4954847;28;51069;-76
2021/10/18 06:27:51;;;;;;;;;29.50;25.25;;;;;11.37;67.06;101814.13;4946273;28;58608;-76
2021/10/18 06:30:16;;;;;;;;;32.25;29.00;;;;;11.38;67.01;101815.91;4938486;28;51913;-76
2021/10/18 06:32:42;;;;;;;;;29.75;23.00;;;;;11.41;67.25;101820.41;4951091;28;53256;-76
2021/10/18 06:35:07;;;;;;;;;32.50;24.75;;;;;11.42;67.23;101819.53;4946690;28;53427;-75
2021/10/18 06:37:33;;;;;;;;;37.00;29.00;;;;;11.45;67.11;101822.22;4952109;28;46415;-75
2021/10/18 06:39:59;;;;;;;;;26.00;23.00;;;;;11.47;67.08;101826.72;4953794;28;45185;-75
2021/10/18 06:42:24;;;;;;;;;36.50;23.25;;;;;11.51;67.29;101831.22;4952641;28;45439;-77
2021/10/18 06:44:49;;;;;;;;;25.00;23.25;;;;;11.58;67.39;101828.72;4948249;28;45520;-78
2021/10/18 06:47:17;;;;;;;;;28.75;24.25;;;;;11.62;67.46;101826.19;4946228;28;45747;-79
2021/10/18 06:49:42;;;;;;;;;31.75;28.75;;;;;11.66;67.38;101821.84;4950048;28;45386;-78
2021/10/18 06:52:07;;;;;;;;;26.75;24.00;;;;;11.70;67.62;101823.69;4946967;28;45982;-80
2021/10/18 06:54:42;;;;;;;;;24.25;22.75;;;;;11.73;67.59;101821.13;4953612;28;47160;-80
2021/10/18 06:57:08;;;;;;;;;31.25;28.50;;;;;11.77;67.62;101836.19;4951660;28;47775;-79
2021/10/18 06:59:33;;;;;;;;;30.75;23.75;;;;;11.83;67.58;101832.84;4941452;28;45463;-77
2021/10/18 07:01:59;;;;;;;;;28.75;24.25;;;;;11.88;67.72;101832.09;4947994;28;45442;-79
2021/10/18 07:04:26;;;;;;;;;32.00;28.00;;;;;11.92;67.67;101836.56;4942126;28;45467;-77
2021/10/18 07:06:52;;;;;;;;;32.50;24.75;;;;;11.98;67.92;101835.81;4950302;28;47361;-78
2021/10/18 07:09:17;;;;;;;;;29.75;28.00;;;;;12.01;67.51;101828.84;4950541;28;50635;-78
2021/10/18 07:11:43;;;;;;;;;29.75;26.00;;;;;12.10;67.66;101841.38;4954537;28;50860;-76
2021/10/18 07:14:08;;;;;;;;;31.75;29.00;;;;;12.15;67.86;101841.47;4952252;28;52299;-77
2021/10/18 07:16:33;;;;;;;;;38.75;31.75;;;;;12.22;67.71;101838.09;4961559;28;53012;-77
2021/10/18 07:18:59;;;;;;;;;31.50;29.75;;;;;12.29;67.79;101832.94;4973239;28;45440;-77
2021/10/18 07:21:24;;;;;;;;;35.00;32.00;;;;;12.35;67.56;101837.44;4954781;28;45575;-78
2021/10/18 07:23:55;;;;;;;;;39.00;34.25;;;;;12.42;67.64;101834.09;4955450;28;45669;-78
2021/10/18 07:26:20;;;;;;;;;40.00;33.25;;;;;12.46;67.74;101827.97;4949862;28;47395;-77
2021/10/18 07:28:46;;;;;;;;;43.00;35.00;;;;;12.58;67.63;101843.22;4949991;28;45448;-78
2021/10/18 07:31:11;;;;;;;;;35.50;29.75;;;;;12.65;67.56;101844.22;4981209;28;45202;-77
2021/10/18 07:36:21;;;;;;;;;37.25;33.00;;;;;12.77;67.55;101831.19;4930946;22;45635;-76
2021/10/18 07:38:47;;;;;;;;;33.00;27.75;;;;;12.83;67.09;101832.19;4946895;28;45510;-76
2021/10/18 07:41:12;;;;;;;;;31.50;28.25;;;;;12.90;67.26;101829.66;4935370;28;45484;-75
2021/10/18 07:43:37;;;;;;;;;24.50;24.50;;;;;12.95;67.24;101836.84;4935114;28;49403;-76
2021/10/18 07:46:03;;;;;;;;;34.00;30.00;;;;;13.03;67.01;101845.78;4930797;28;55898;-76
2021/10/18 07:48:28;;;;;;;;;29.50;25.75;;;;;13.08;66.85;101830.84;4934437;28;59222;-76
2021/10/18 07:50:54;;;;;;;;;35.25;30.25;;;;;13.08;66.98;101827.31;4935854;28;45913;-76
2021/10/18 07:53:19;;;;;;;;;34.00;26.25;;;;;13.17;66.78;101838.06;4935201;28;45535;-75
2021/10/18 07:55:44;;;;;;;;;30.50;25.75;;;;;13.24;66.64;101847.06;4938395;28;51681;-75
2021/10/18 07:58:10;;;;;;;;;26.50;25.50;;;;;13.30;66.80;101847.16;4934487;28;45420;-76
2021/10/18 08:00:36;;;;;;;;;21.75;21.75;;;;;13.35;66.54;101837.50;4935648;28;45519;-76
2021/10/18 08:03:01;;;;;;;;;29.25;27.75;;;;;13.41;66.28;101839.34;4934973;28;45670;-76
2021/10/18 08:05:27;;;;;;;;;30.25;26.00;;;;;13.47;66.15;101848.28;4934243;28;46189;-76
2021/10/18 08:07:52;;;;;;;;;29.00;23.50;;;;;13.53;66.26;101850.16;4949168;28;45593;-76
2021/10/18 08:10:25;;;;;;;;;23.75;23.50;;;;;13.59;66.33;101851.16;4937952;28;45504;-77
2021/10/18 08:12:51;;;;;;;;;25.00;25.00;;;;;13.66;65.87;101846.81;4934944;28;45507;-76
2021/10/18 08:15:17;;;;;;;;;31.25;25.50;;;;;13.65;65.99;101830.88;4934696;28;47858;-76
2021/10/18 08:17:42;;;;;;;;;34.25;26.00;;;;;13.75;65.89;101846.97;4934527;28;45337;-76
2021/10/18 08:20:08;;;;;;;;;26.25;25.75;;;;;13.85;65.77;101853.31;4935096;28;52991;-75
2021/10/18 08:22:34;;;;;;;;;28.75;28.75;;;;;13.91;66.12;101861.34;4935542;28;45547;-77
2021/10/18 08:24:59;;;;;;;;;33.75;26.00;;;;;13.95;65.60;101868.47;4935229;28;46633;-76
2021/10/18 08:27:24;;;;;;;;;28.00;23.75;;;;;14.07;66.02;101871.31;4933147;28;52901;-76
2021/10/18 08:29:50;;;;;;;;;34.00;26.75;;;;;14.16;65.28;101874.06;4934154;28;51233;-76
2021/10/18 08:32:15;;;;;;;;;28.25;27.25;;;;;14.25;65.79;101870.63;4917533;28;45494;-76
2021/10/18 08:34:41;;;;;;;;;27.75;24.75;;;;;14.32;65.10;101859.19;4929142;28;54711;-76
2021/10/18 08:37:07;;;;;;;;;28.25;24.50;;;;;14.42;64.96;101850.47;4935555;28;45421;-76
2021/10/18 08:42:24;;;;;;;;;30.25;24.00;;;;;14.62;64.61;101849.84;4930803;28;46548;-76
2021/10/18 08:44:50;;;;;;;;;30.75;27.50;;;;;14.67;64.27;101850.78;4934298;28;46839;-76
2021/10/18 08:47:15;;;;;;;;;26.00;24.25;;;;;14.72;64.88;101851.72;4934400;28;45199;-76
2021/10/18 08:49:41;;;;;;;;;32.25;24.50;;;;;14.71;64.47;101835.78;4934689;28;54065;-75
2021/10/18 08:52:06;;;;;;;;;24.00;22.75;;;;;14.83;64.75;101847.41;4934314;28;45506;-76
2021/10/18 08:54:32;;;;;;;;;28.50;26.00;;;;;14.93;64.55;101845.72;4893295;28;46522;-76
2021/10/18 08:56:57;;;;;;;;;39.25;30.25;;;;;14.99;64.61;101843.13;4953710;28;45494;-75
2021/10/18 08:59:23;;;;;;;;;33.00;29.00;;;;;15.07;64.50;101849.38;4934764;28;45376;-76
2021/10/18 09:01:50;;;;;;;;;30.50;26.25;;;;;15.12;64.32;101838.78;4934424;28;45412;-76
2021/10/18 09:04:16;;;;;;;;;29.00;26.50;;;;;15.21;64.16;101836.22;4917651;28;46423;-76
2021/10/18 09:06:48;;;;;;;;;33.50;28.50;;;;;15.18;63.98;101809.59;4935043;28;45416;-76
2021/10/18 09:09:13;;;;;;;;;30.00;24.50;;;;;15.34;63.48;101829.19;4917799;28;45416;-76
2021/10/18 09:11:39;;;;;;;;;31.00;28.00;;;;;15.38;63.69;101823.03;4917964;28;45493;-76
2021/10/18 09:14:04;;;;;;;;;28.25;26.00;;;;;15.43;63.60;101815.97;4933328;28;60460;-76
2021/10/18 09:16:32;;;;;;;;;30.75;26.75;;;;;15.50;63.45;101814.22;4934787;28;48146;-76
2021/10/18 09:19:11;;;;;;;;;30.50;27.25;;;;;15.52;63.31;101824.03;4934556;28;45425;-76
2021/10/18 09:21:47;;;;;;;;;31.25;27.00;;;;;15.58;63.49;101832.03;4934241;28;45450;-76
2021/10/18 09:24:15;;;;;;;;;31.00;24.50;;;;;15.63;63.28;101838.31;4934529;28;46798;-76
2021/10/18 09:26:41;;;;;;;;;35.25;28.75;;;;;15.69;63.38;101840.13;4934256;28;45409;-75
2021/10/18 09:29:09;;;;;;;;;34.50;30.75;;;;;15.75;62.79;101839.28;4934708;28;45509;-76
2021/10/18 09:31:34;;;;;;;;;24.25;23.25;;;;;15.78;62.71;101840.19;4934465;28;45267;-76
2021/10/18 09:34:09;;;;;;;;;30.75;28.00;;;;;15.83;63.04;101834.91;4933510;28;47343;-75
2021/10/18 09:36:35;;;;;;;;;23.00;20.67;;;;;15.82;62.49;101827.75;4932732;28;45491;-76
2021/10/18 09:39:24;;;;;;;;;32.33;26.33;;;;;15.91;62.67;101828.72;4931571;28;45304;-76
2021/10/18 09:41:59;;;;;;;;;31.67;26.00;;;;;15.96;63.01;101828.72;4935029;28;45516;-76
2021/10/18 10:52:55;;;;;;;;;31.00;27.00;;;;;16.98;62.10;101817.47;4935195;28;45866;-75
2021/10/18 10:55:25;;;;;;;;;28.00;24.67;;;;;17.12;62.16;101815.72;4936382;28;45310;-76
2021/10/18 10:57:52;;;;;;;;;24.00;22.33;;;;;17.25;62.24;101801.44;4935469;28;45527;-76
2021/10/18 11:00:38;;;;;;;;;33.00;26.33;;;;;17.39;61.95;101804.13;4964720;28;45608;-76
2021/10/18 11:03:23;;;;;;;;;30.33;25.33;;;;;17.49;61.52;101789.84;5024970;28;46548;-76
2021/10/18 11:05:55;;;;;;;;;25.33;24.33;;;;;17.53;61.33;101788.09;4986731;28;45459;-77
2021/10/18 11:08:40;;;;;;;;;28.33;27.00;;;;;17.63;61.23;101795.19;4932547;28;45426;-76
2021/10/18 11:11:14;;;;;;;;;28.33;26.33;;;;;17.73;61.41;101801.41;4935300;28;45390;-77
2021/10/18 11:13:54;;;;;;;;;25.67;24.33;;;;;17.80;61.18;101798.72;4934840;28;47271;-76
2021/10/18 11:16:22;;;;;;;;;26.33;24.67;;;;;17.88;61.16;101803.13;4934183;28;45416;-77
2021/10/18 11:18:49;;;;;;;;;29.00;25.67;;;;;17.95;61.06;101800.44;4934961;28;45452;-76
2021/10/18 11:21:23;;;;;;;;;25.00;25.00;;;;;18.01;61.21;101813.78;4934713;28;45829;-76
2021/10/18 11:24:04;;;;;;;;;26.00;23.33;;;;;18.08;60.67;101817.31;4934873;28;46891;-79
2021/10/18 11:26:35;;;;;;;;;24.00;23.00;;;;;18.13;60.71;101811.94;4928826;28;45505;-77
2021/10/18 11:29:01;;;;;;;;;25.33;22.33;;;;;18.15;60.69;101804.81;4935260;28;45372;-78
2021/10/18 11:31:28;;;;;;;;;26.67;24.67;;;;;18.21;60.48;101802.97;4934693;28;45526;-77
2021/10/18 11:34:12;;;;;;;;;23.67;23.33;;;;;18.28;60.82;101802.06;4933987;28;46374;-77
2021/10/18 11:36:40;;;;;;;;;24.67;20.67;;;;;18.30;60.70;101794.03;4935083;28;45391;-78
2021/10/18 11:39:08;;;;;;;;;29.67;25.67;;;;;18.35;60.90;101786.00;4918223;28;45514;-76
2021/10/18 11:41:58;;;;;;;;;24.67;21.00;;;;;18.39;60.64;101780.63;4932974;28;45507;-77
2021/10/18 11:44:55;;;;;;;;;24.00;23.67;;;;;18.43;61.08;101770.78;4933617;28;47047;-77
2021/10/18 11:47:27;;;;;;;;;22.33;20.00;;;;;18.47;60.96;101764.50;4931791;28;45472;-77
2021/10/18 11:50:17;;;;;;;;;22.67;21.00;;;;;18.49;60.92;101757.38;4934123;28;45505;-77
2021/10/18 11:52:50;;;;;;;;;26.67;23.00;;;;;18.49;60.96;101741.34;4931582;28;45297;-77
2021/10/18 11:55:36;;;;;;;;;26.67;23.33;;;;;18.54;61.41;101747.53;4935364;28;47477;-76
2021/10/18 11:58:24;;;;;;;;;26.33;22.33;;;;;18.56;60.97;101745.72;4937737;28;45429;-77
2021/10/18 12:01:00;;;;;;;;;22.00;21.00;;;;;18.58;61.05;101743.91;4931733;28;45487;-79
2021/10/18 12:03:25;;;;;;;;;22.00;19.67;;;;;18.52;61.21;101744.84;4934343;28;45423;-76
2021/10/18 12:05:52;;;;;;;;;22.00;21.00;;;;;18.59;61.23;101733.22;4933827;28;47282;-78
2021/10/18 12:08:19;;;;;;;;;20.33;18.67;;;;;18.63;61.21;101728.72;4932851;28;45657;-76
2021/10/18 12:10:49;;;;;;;;;22.00;20.33;;;;;18.68;61.34;101743.00;4917615;28;45558;-77
2021/10/18 12:13:24;;;;;;;;;22.67;22.00;;;;;18.72;61.23;101749.22;4934979;28;45423;-79
2021/10/18 12:16:06;;;;;;;;;23.33;21.00;;;;;18.80;61.21;101728.63;4934242;28;46079;-78
2021/10/18 12:18:38;;;;;;;;;21.00;19.00;;;;;18.87;61.34;101724.13;4938571;28;45559;-76
2021/10/18 12:21:04;;;;;;;;;21.33;18.00;;;;;18.91;61.50;101712.47;4917275;28;45424;-77
2021/10/18 12:23:49;;;;;;;;;20.67;19.33;;;;;18.95;61.20;101716.91;4935636;28;45420;-77